Time;durP1;ratioP1;P1;durP2;ratioP2;P2;SDS_P1;SDS_P2;PMS_P1;PMS_P2;Temp;Humidity;BMP_temperature;BMP_pressure;BME280_temperature;BME280_humidity;BME280_pressure;Samples;Min_cycle;Max_cycle;Signal;HPM_P1;HPM_P2
2022/06/12 00:01:30;;;;;;;11.40;6.80;;;;;;;18.06;62.29;100866.04;106108;1272;23920;-70
2022/06/12 00:03:57;;;;;;;10.40;6.30;;;;;;;18.03;62.19;100868.42;106256;1270;24418;-70
2022/06/12 00:06:24;;;;;;;8.90;5.70;;;;;;;18.01;62.36;100870.81;106000;1270;24411;-70
2022/06/12 00:08:51;;;;;;;9.70;6.40;;;;;;;17.99;62.34;100870.38;106131;1271;22541;-69
2022/06/12 00:11:24;;;;;;;7.90;5.60;;;;;;;17.95;62.47;100867.81;106100;1270;25340;-72
2022/06/12 00:13:55;;;;;;;8.90;5.60;;;;;;;17.93;62.25;100868.42;106259;1270;22605;-72
2022/06/12 00:16:23;;;;;;;7.40;5.50;;;;;;;17.92;62.38;100868.44;106105;1270;25685;-72
2022/06/12 00:18:50;;;;;;;8.30;5.90;;;;;;;17.93;62.52;100864.33;106230;1270;25474;-73
2022/06/12 00:21:18;;;;;;;7.60;5.30;;;;;;;17.94;62.61;100872.29;106283;1270;22561;-70
2022/06/12 00:24:07;;;;;;;9.20;5.40;;;;;;;17.94;62.67;100867.49;106184;1270;22842;-71
2022/06/12 00:26:38;;;;;;;7.80;5.40;;;;;;;17.92;62.67;100873.25;106097;1271;22737;-70
2022/06/12 00:29:14;;;;;;;9.80;6.10;;;;;;;17.94;62.54;100870.88;106097;1270;26497;-70
2022/06/12 00:32:12;;;;;;;9.10;6.60;;;;;;;17.89;62.48;100869.61;106109;1270;24432;-69
2022/06/12 00:34:48;;;;;;;12.50;6.50;;;;;;;17.89;62.69;100875.13;106198;1270;25297;-69
2022/06/12 00:37:18;;;;;;;6.10;5.20;;;;;;;17.86;62.60;100870.08;106352;1271;22557;-69
2022/06/12 00:39:47;;;;;;;7.70;5.10;;;;;;;17.79;62.39;100872.61;105846;1276;25313;-69
2022/06/12 00:42:27;;;;;;;6.00;4.90;;;;;;;17.72;62.40;100870.49;105850;1276;25247;-69
2022/06/12 00:44:57;;;;;;;7.10;4.90;;;;;;;17.64;62.51;100867.72;105847;1277;22597;-74
2022/06/12 00:47:24;;;;;;;8.90;5.20;;;;;;;17.55;62.53;100868.50;105959;1276;22741;-74
2022/06/12 00:49:56;;;;;;;7.60;5.90;;;;;;;17.49;62.81;100866.74;105806;1274;25608;-68
2022/06/12 00:52:57;;;;;;;7.60;5.70;;;;;;;17.47;63.18;100861.27;105991;1276;24413;-75
2022/06/12 00:55:48;;;;;;;7.00;5.30;;;;;;;17.44;63.20;100866.71;105556;1277;22702;-72
2022/06/12 00:58:19;;;;;;;7.40;5.50;;;;;;;17.46;63.46;100866.13;106101;1271;23083;-69
2022/06/12 01:00:47;;;;;;;7.30;5.30;;;;;;;17.47;63.45;100860.76;106704;1270;22551;-67
2022/06/12 01:03:15;;;;;;;6.00;4.80;;;;;;;17.52;63.57;100862.19;106515;1271;23980;-71
2022/06/12 01:08:29;;;;;;;8.30;5.50;;;;;;;17.53;63.60;100861.11;106356;1271;22557;-71
2022/06/12 01:11:01;;;;;;;9.30;6.30;;;;;;;17.52;63.65;100861.33;106293;1271;22573;-79
2022/06/12 01:13:32;;;;;;;7.40;6.10;;;;;;;17.52;63.72;100858.27;106113;1271;22554;-68
2022/06/12 01:16:04;;;;;;;10.20;5.90;;;;;;;17.51;63.72;100854.41;106004;1271;22614;-70
2022/06/12 01:18:35;;;;;;;11.30;6.80;;;;;;;17.44;63.76;100852.30;106196;1271;22604;-69
2022/06/12 01:21:51;;;;;;;8.30;6.00;;;;;;;17.39;63.89;100852.11;106359;1271;24603;-70
2022/06/12 01:24:57;;;;;;;8.20;6.30;;;;;;;17.32;64.17;100846.61;106248;1271;23085;-69
2022/06/12 01:28:02;;;;;;;9.40;6.70;;;;;;;17.28;64.42;100844.95;106131;1271;22553;-72
2022/06/12 01:30:53;;;;;;;8.00;5.60;;;;;;;17.28;64.47;100842.45;105526;1277;22713;-68
2022/06/12 01:33:34;;;;;;;7.30;5.70;;;;;;;17.31;64.52;100846.81;105571;1277;22618;-70
2022/06/12 01:36:11;;;;;;;8.40;6.40;;;;;;;17.35;64.40;100846.49;105867;1276;22621;-69
2022/06/12 01:38:48;;;;;;;7.30;6.30;;;;;;;17.38;64.50;100846.60;105538;1277;22560;-68
2022/06/12 01:41:46;;;;;;;8.70;5.80;;;;;;;17.41;64.33;100847.05;105736;1276;23090;-71
2022/06/12 01:44:58;;;;;;;8.30;6.50;;;;;;;17.41;64.36;100848.84;105857;1276;22532;-74
2022/06/12 01:47:44;;;;;;;10.00;6.60;;;;;;;17.38;64.37;100848.20;105808;1276;24647;-66
2022/06/12 01:50:36;;;;;;;11.80;7.10;;;;;;;17.35;64.28;100848.10;106110;1271;22855;-70
2022/06/12 01:53:10;;;;;;;9.40;7.60;;;;;;;17.29;64.18;100848.64;106195;1271;22713;-71
2022/06/12 01:55:55;;;;;;;10.90;6.80;;;;;;;17.27;64.30;100849.05;106146;1271;22742;-72
2022/06/12 01:58:31;;;;;;;8.60;7.40;;;;;;;17.28;64.58;100849.39;106380;1271;24415;-69
2022/06/12 02:01:23;;;;;;;10.30;7.10;;;;;;;17.26;64.38;100849.46;106169;1271;22482;-70
2022/06/12 02:04:01;;;;;;;10.00;7.30;;;;;;;17.16;64.84;100849.02;106179;1270;22547;-68
2022/06/12 02:06:52;;;;;;;9.30;6.80;;;;;;;17.14;64.82;100850.16;106397;1270;22524;-68
2022/06/12 02:09:29;;;;;;;8.30;6.50;;;;;;;17.13;65.13;100848.39;105869;1270;24313;-69
2022/06/12 02:15:22;;;;;;;10.10;7.00;;;;;;;17.17;65.11;100844.02;106130;1270;25258;-70
2022/06/12 02:18:15;;;;;;;10.00;6.90;;;;;;;17.19;65.09;100845.38;105604;1276;22557;-69
2022/06/12 02:20:47;;;;;;;8.60;7.00;;;;;;;17.21;65.13;100844.78;105618;1275;22585;-73
2022/06/12 02:23:32;;;;;;;11.20;7.60;;;;;;;17.19;65.10;100837.20;105645;1275;22883;-72
2022/06/12 02:26:02;;;;;;;10.00;7.70;;;;;;;17.23;65.13;100843.85;105822;1275;25266;-73
2022/06/12 02:28:41;;;;;;;8.30;7.20;;;;;;;17.23;65.08;100838.86;105722;1275;22677;-71
2022/06/12 02:31:16;;;;;;;8.50;7.10;;;;;;;17.22;64.92;100840.50;105896;1276;22709;-71
2022/06/12 02:33:49;;;;;;;11.60;7.60;;;;;;;17.15;65.19;100830.53;105883;1276;22675;-75
2022/06/12 02:36:23;;;;;;;11.20;8.30;;;;;;;17.18;65.12;100836.34;106235;1270;22556;-73
2022/06/12 02:38:57;;;;;;;9.10;7.50;;;;;;;17.17;65.02;100836.17;106477;1270;24451;-74
2022/06/12 02:41:29;;;;;;;8.80;6.80;;;;;;;17.17;65.03;100839.20;106350;1270;22644;-77
2022/06/12 02:44:01;;;;;;;8.60;7.40;;;;;;;17.19;65.07;100836.84;106354;1270;24366;-74
2022/06/12 02:46:40;;;;;;;9.20;7.10;;;;;;;17.21;64.98;100837.66;106426;1270;22617;-72
2022/06/12 02:49:09;;;;;;;10.00;8.00;;;;;;;17.18;64.90;100833.30;106477;1270;23286;-70
2022/06/12 02:52:01;;;;;;;9.20;7.90;;;;;;;17.20;64.88;100839.50;106165;1270;22553;-73
2022/06/12 02:54:39;;;;;;;11.10;8.40;;;;;;;17.18;64.94;100839.37;106525;1268;22490;-72
2022/06/12 02:57:25;;;;;;;10.20;7.70;;;;;;;17.22;65.24;100838.89;106406;1270;22704;-72
2022/06/12 02:59:59;;;;;;;9.70;7.70;;;;;;;17.20;64.89;100838.58;106203;1270;22685;-71
2022/06/12 03:02:48;;;;;;;11.90;8.30;;;;;;;17.14;64.88;100835.94;106337;1270;25236;-72
2022/06/12 03:05:26;;;;;;;12.50;8.20;;;;;;;17.06;65.18;100837.19;106204;1270;25247;-73
2022/06/12 03:08:00;;;;;;;8.90;8.00;;;;;;;17.05;65.25;100839.52;106021;1270;25350;-78
2022/06/12 03:10:37;;;;;;;10.00;8.10;;;;;;;16.98;65.00;100840.61;106283;1270;22687;-74
2022/06/12 03:13:09;;;;;;;11.60;8.20;;;;;;;16.94;65.43;100843.55;106231;1270;25248;-72
2022/06/12 03:15:47;;;;;;;12.00;8.30;;;;;;;16.93;65.46;100845.92;106139;1270;25402;-72
2022/06/12 03:18:20;;;;;;;10.40;8.50;;;;;;;16.97;65.63;100843.48;106246;1270;24364;-73
2022/06/12 03:20:47;;;;;;;11.70;9.30;;;;;;;17.01;65.60;100848.34;106229;1270;25355;-73
2022/06/12 03:23:34;;;;;;;10.40;9.00;;;;;;;17.00;65.48;100844.10;106342;1270;22994;-73
2022/06/12 03:26:07;;;;;;;10.50;8.80;;;;;;;17.02;65.48;100842.83;106225;1270;25360;-72
2022/06/12 03:28:33;;;;;;;10.80;8.10;;;;;;;17.05;65.62;100840.95;106244;1270;22759;-74
2022/06/12 03:31:15;;;;;;;10.50;8.20;;;;;;;17.05;65.45;100838.11;106281;1270;22594;-74
2022/06/12 03:34:10;;;;;;;10.70;8.30;;;;;;;17.06;65.59;100840.39;106223;1270;22825;-75
2022/06/12 03:36:53;;;;;;;10.50;8.50;;;;;;;17.11;65.58;100839.23;106310;1270;26503;-72
2022/06/12 03:39:31;;;;;;;11.40;9.40;;;;;;;17.15;65.49;100838.04;106253;1270;24289;-73
2022/06/12 03:42:43;;;;;;;12.10;7.70;;;;;;;17.15;65.38;100835.90;106357;1270;25465;-72
2022/06/12 03:45:22;;;;;;;8.10;6.90;;;;;;;17.17;65.44;100838.88;106202;1270;24260;-70
2022/06/12 03:47:49;;;;;;;8.60;7.20;;;;;;;17.19;65.22;100840.23;106288;1270;26616;-72
2022/06/12 03:50:26;;;;;;;9.60;8.00;;;;;;;17.23;65.42;100838.33;106302;1270;25236;-71
2022/06/12 03:53:17;;;;;;;9.20;7.70;;;;;;;17.27;65.22;100842.64;106349;1270;22527;-68
2022/06/12 03:58:52;;;;;;;11.00;8.80;;;;;;;17.41;65.14;100848.10;106375;1270;22553;-71
2022/06/12 04:01:21;;;;;;;14.20;8.10;;;;;;;17.45;65.06;100851.39;106312;1270;25251;-75
2022/06/12 04:03:48;;;;;;;9.60;8.00;;;;;;;17.43;65.02;100853.05;106520;1270;22515;-72
2022/06/12 04:06:21;;;;;;;11.00;7.90;;;;;;;17.46;65.08;100851.34;106316;1270;24381;-80
2022/06/12 04:08:56;;;;;;;11.00;8.50;;;;;;;17.51;65.09;100849.97;106349;1270;22547;-81
2022/06/12 04:11:26;;;;;;;10.60;8.70;;;;;;;17.57;65.03;100846.39;106280;1270;22566;-80
2022/06/12 04:13:53;;;;;;;9.90;7.90;;;;;;;17.63;65.03;100846.36;106266;1271;25598;-78
2022/06/12 04:20:58;;;;;;;9.20;7.30;;;;;;;17.82;64.77;100853.42;106207;1271;22630;-77
2022/06/12 04:23:48;;;;;;;7.50;6.50;;;;;;;17.90;64.70;100851.04;106311;1270;22831;-80
2022/06/12 04:26:24;;;;;;;9.10;6.30;;;;;;;17.96;64.42;100851.73;106396;1270;22566;-78
2022/06/12 04:28:59;;;;;;;7.80;6.60;;;;;;;17.96;64.13;100850.86;106457;1271;22735;-85
2022/06/12 04:31:28;;;;;;;10.10;6.00;;;;;;;18.00;64.04;100857.34;106804;1270;26600;-80
2022/06/12 04:34:09;;;;;;;8.40;6.10;;;;;;;18.01;63.95;100858.71;106468;1271;25532;-84
2022/06/12 04:36:38;;;;;;;9.70;5.80;;;;;;;18.01;63.79;100858.55;106346;1270;24355;-77
2022/06/12 04:39:06;;;;;;;6.20;5.60;;;;;;;18.05;63.89;100863.40;106133;1270;25629;-76
2022/06/12 04:41:35;;;;;;;8.80;5.30;;;;;;;18.10;63.93;100863.58;106346;1270;23224;-85
2022/06/12 04:44:05;;;;;;;8.50;5.10;;;;;;;18.12;63.41;100862.48;106990;1270;22580;-79
2022/06/12 04:46:35;;;;;;;5.40;4.70;;;;;;;18.13;63.17;100859.61;106495;1271;22547;-76
2022/06/12 04:49:03;;;;;;;7.00;4.40;;;;;;;18.16;63.03;100859.66;106335;1269;25399;-80
2022/06/12 04:51:31;;;;;;;6.80;4.60;;;;;;;18.19;62.86;100859.06;106294;1270;22554;-77
2022/06/12 04:53:59;;;;;;;6.30;4.10;;;;;;;18.23;62.74;100857.69;106432;1270;25513;-77
2022/06/12 04:56:29;;;;;;;6.90;4.50;;;;;;;18.25;62.59;100858.84;106524;1270;22525;-75
2022/06/12 04:58:56;;;;;;;6.20;3.70;;;;;;;18.28;62.44;100860.17;106248;1270;26709;-76
2022/06/12 05:01:24;;;;;;;6.60;3.90;;;;;;;18.34;62.37;100861.75;106377;1270;22536;-77
2022/06/12 05:03:56;;;;;;;4.90;3.30;;;;;;;18.38;62.02;100859.28;106367;1270;26537;-77
2022/06/12 05:06:23;;;;;;;3.80;3.40;;;;;;;18.39;61.74;100860.34;106300;1270;22546;-77
2022/06/12 05:08:52;;;;;;;3.80;3.20;;;;;;;18.41;61.65;100861.15;106256;1270;22757;-76
2022/06/12 05:11:20;;;;;;;4.40;2.90;;;;;;;18.46;61.66;100856.00;106047;1270;22834;-76
2022/06/12 05:13:48;;;;;;;4.00;3.20;;;;;;;18.52;61.46;100855.27;106182;1270;22866;-76
2022/06/12 05:16:23;;;;;;;4.90;2.90;;;;;;;18.56;61.11;100855.66;106074;1270;22526;-76
2022/06/12 05:18:50;;;;;;;3.60;3.20;;;;;;;18.61;60.75;100853.70;106090;1270;24214;-74
2022/06/12 05:21:17;;;;;;;4.50;3.10;;;;;;;18.67;60.79;100854.73;106312;1270;24376;-76
2022/06/12 05:23:44;;;;;;;3.30;2.20;;;;;;;18.73;60.50;100853.98;106306;1270;24227;-75
2022/06/12 05:26:15;;;;;;;3.80;2.60;;;;;;;18.78;59.94;100855.06;106255;1270;24313;-77
2022/06/12 05:28:42;;;;;;;3.40;2.50;;;;;;;18.86;59.63;100861.02;106008;1271;25335;-75
2022/06/12 05:31:09;;;;;;;4.20;3.30;;;;;;;18.94;59.66;100859.48;106186;1270;22575;-77
2022/06/12 05:33:37;;;;;;;3.40;2.40;;;;;;;19.03;59.51;100860.57;106267;1270;22554;-77
2022/06/12 05:36:05;;;;;;;4.00;2.50;;;;;;;19.11;59.09;100860.30;106249;1270;25650;-77
2022/06/12 05:38:33;;;;;;;4.30;2.10;;;;;;;19.17;58.70;100858.30;106305;1270;25526;-75
2022/06/12 05:40:59;;;;;;;3.60;2.40;;;;;;;19.21;58.61;100856.38;106293;1270;22544;-77
2022/06/12 05:43:26;;;;;;;4.30;2.20;;;;;;;19.26;58.49;100854.41;106011;1270;24090;-75
2022/06/12 05:45:53;;;;;;;3.30;2.10;;;;;;;19.31;58.25;100855.11;105987;1270;22705;-74
2022/06/12 05:48:22;;;;;;;3.80;2.20;;;;;;;19.33;57.92;100852.55;106105;1271;23336;-76
2022/06/12 05:50:53;;;;;;;2.90;2.20;;;;;;;19.36;57.99;100850.64;106157;1270;25297;-76
2022/06/12 05:53:23;;;;;;;4.70;2.30;;;;;;;19.42;58.10;100848.80;106260;1270;24842;-75
2022/06/12 05:55:51;;;;;;;3.80;2.10;;;;;;;19.50;58.02;100849.91;106233;1270;24429;-74
2022/06/12 05:58:20;;;;;;;5.60;1.90;;;;;;;19.57;57.59;100853.02;106325;1270;25367;-81
2022/06/12 06:00:48;;;;;;;6.90;2.30;;;;;;;19.63;57.28;100857.10;106155;1270;22542;-77
2022/06/12 06:03:15;;;;;;;3.20;2.10;;;;;;;19.67;57.12;100856.22;106222;1271;25243;-80
2022/06/12 06:05:44;;;;;;;3.10;1.90;;;;;;;19.74;57.02;100855.41;106152;1272;25409;-76
2022/06/12 06:08:11;;;;;;;4.30;2.30;;;;;;;19.82;56.88;100858.16;106464;1271;22551;-73
2022/06/12 06:10:41;;;;;;;3.80;2.40;;;;;;;19.91;56.87;100860.82;106653;1271;22807;-75
2022/06/12 06:13:08;;;;;;;8.70;2.20;;;;;;;20.00;56.49;100862.94;106592;1272;22695;-77
2022/06/12 06:15:35;;;;;;;2.80;2.30;;;;;;;20.09;56.35;100863.89;106330;1273;22547;-76
2022/06/12 06:18:03;;;;;;;4.10;2.20;;;;;;;20.13;55.92;100857.43;106299;1271;25301;-76
2022/06/12 06:20:33;;;;;;;3.10;1.80;;;;;;;20.17;55.83;100858.71;106227;1271;22567;-78
2022/06/12 06:23:00;;;;;;;3.00;2.10;;;;;;;20.20;55.50;100859.65;106175;1273;25245;-78
2022/06/12 06:25:29;;;;;;;5.40;1.90;;;;;;;20.23;55.25;100857.22;106249;1271;23201;-74
2022/06/12 06:27:57;;;;;;;3.60;2.10;;;;;;;20.28;55.09;100849.86;106198;1271;25339;-79
2022/06/12 06:30:25;;;;;;;3.30;2.10;;;;;;;20.40;54.85;100849.50;106285;1271;22567;-75
2022/06/12 06:32:53;;;;;;;3.90;2.30;;;;;;;20.48;54.51;100844.55;105972;1273;24624;-80
2022/06/12 06:35:21;;;;;;;2.50;1.80;;;;;;;20.55;54.08;100843.34;106069;1271;22528;-86
2022/06/12 06:37:50;;;;;;;2.80;1.90;;;;;;;20.65;53.84;100845.01;106502;1272;22997;-77
2022/06/12 06:40:19;;;;;;;3.50;1.50;;;;;;;20.75;53.42;100843.87;106532;1271;25523;-77
2022/06/12 06:42:46;;;;;;;2.70;1.90;;;;;;;20.86;52.89;100847.69;106452;1271;26530;-76
2022/06/12 06:48:03;;;;;;;3.50;1.60;;;;;;;21.13;51.47;100844.02;106159;1271;24062;-75
2022/06/12 06:50:31;;;;;;;1.70;1.40;;;;;;;21.27;51.07;100843.55;105973;1273;25700;-78
2022/06/12 06:52:59;;;;;;;4.80;2.50;;;;;;;21.39;50.41;100845.48;106274;1273;22550;-76
2022/06/12 06:55:28;;;;;;;2.60;2.10;;;;;;;21.52;50.31;100843.81;106268;1271;23302;-77
2022/06/12 06:57:57;;;;;;;2.60;1.60;;;;;;;21.67;50.21;100839.14;106270;1271;22729;-78
2022/06/12 07:00:29;;;;;;;4.50;2.70;;;;;;;21.81;49.64;100832.57;106169;1273;22545;-81
2022/06/12 07:02:56;;;;;;;5.90;2.70;;;;;;;21.95;49.12;100831.90;106080;1272;25363;-77
2022/06/12 07:05:24;;;;;;;12.90;2.80;;;;;;;22.09;48.63;100826.88;105982;1271;25307;-80
2022/06/12 07:07:51;;;;;;;2.10;1.60;;;;;;;22.21;48.43;100822.36;106106;1273;22513;-73
2022/06/12 07:10:22;;;;;;;5.50;2.30;;;;;;;22.27;48.12;100818.83;106034;1272;25359;-74
2022/06/12 07:12:51;;;;;;;3.30;1.80;;;;;;;22.31;48.17;100822.73;105996;1271;22568;-75
2022/06/12 07:15:20;;;;;;;3.90;2.30;;;;;;;22.32;47.95;100822.68;106016;1273;22553;-77
2022/06/12 07:17:47;;;;;;;3.40;1.80;;;;;;;22.26;47.93;100821.56;106114;1271;26495;-72
2022/06/12 07:20:17;;;;;;;10.00;4.20;;;;;;;22.21;47.79;100821.10;105963;1273;25394;-73
2022/06/12 07:22:44;;;;;;;4.40;1.90;;;;;;;22.18;47.59;100820.73;106330;1273;22586;-79
2022/06/12 07:25:13;;;;;;;2.40;1.70;;;;;;;22.15;47.46;100816.36;106183;1273;22579;-75
2022/06/12 07:27:42;;;;;;;3.10;1.90;;;;;;;22.16;47.78;100812.59;106023;1273;22542;-75
2022/06/12 07:30:12;;;;;;;4.20;1.80;;;;;;;22.20;47.78;100811.84;105969;1273;25444;-75
2022/06/12 07:32:39;;;;;;;5.00;1.70;;;;;;;22.22;47.81;100814.74;105926;1273;22601;-75
2022/06/12 07:35:07;;;;;;;3.20;1.70;;;;;;;22.28;48.14;100815.55;105951;1271;22538;-78
2022/06/12 07:37:36;;;;;;;2.80;1.70;;;;;;;22.32;47.22;100816.63;106117;1272;22531;-77
2022/06/12 07:40:09;;;;;;;2.90;1.70;;;;;;;22.30;47.11;100814.17;106052;1273;25468;-75
2022/06/12 07:42:36;;;;;;;4.00;1.90;;;;;;;22.30;47.26;100815.12;106056;1271;25314;-76
2022/06/12 07:45:04;;;;;;;2.50;1.70;;;;;;;22.37;47.49;100816.16;106091;1271;24081;-76
2022/06/12 07:47:32;;;;;;;4.20;1.70;;;;;;;22.45;47.70;100819.49;106051;1273;25405;-76
2022/06/12 07:49:59;;;;;;;7.40;2.20;;;;;;;22.49;47.23;100820.17;106099;1271;23200;-77
2022/06/12 07:52:27;;;;;;;2.60;1.40;;;;;;;22.51;47.03;100816.34;106158;1272;22537;-74
2022/06/12 07:54:55;;;;;;;5.00;1.70;;;;;;;22.55;46.73;100810.01;106182;1271;22972;-77
2022/06/12 07:57:23;;;;;;;3.80;1.50;;;;;;;22.59;46.97;100806.09;106118;1271;25508;-78
2022/06/12 07:59:50;;;;;;;3.00;1.70;;;;;;;22.68;46.88;100811.49;105755;1278;23213;-77
2022/06/12 08:02:17;;;;;;;5.70;1.70;;;;;;;22.77;46.61;100808.55;105595;1277;25523;-75
2022/06/12 08:04:45;;;;;;;4.10;1.50;;;;;;;22.81;46.16;100809.40;105907;1277;22534;-75
2022/06/12 08:07:12;;;;;;;2.70;1.50;;;;;;;22.82;46.45;100807.02;105583;1277;22558;-76
2022/06/12 08:09:39;;;;;;;2.20;1.80;;;;;;;22.82;46.13;100805.23;105620;1277;25284;-77
2022/06/12 08:12:07;;;;;;;4.40;1.80;;;;;;;22.86;46.04;100803.58;105515;1277;440931;-76
2022/06/12 08:14:34;;;;;;;3.20;1.80;;;;;;;22.96;46.10;100804.27;105828;1276;22693;-77
2022/06/12 08:17:01;;;;;;;3.60;1.90;;;;;;;23.09;46.30;100801.27;105900;1276;24229;-76
2022/06/12 08:22:14;;;;;;;2.30;1.90;;;;;;;23.33;45.16;100803.70;106375;1271;22786;-76
2022/06/12 08:24:40;;;;;;;5.10;1.70;;;;;;;23.38;44.77;100801.09;106379;1271;24204;-75
2022/06/12 08:27:07;;;;;;;4.50;1.70;;;;;;;23.49;44.78;100804.09;106238;1271;22547;-73
2022/06/12 08:29:35;;;;;;;1.90;1.40;;;;;;;23.67;44.91;100804.54;106214;1270;22550;-77
2022/06/12 08:32:08;;;;;;;4.30;2.00;;;;;;;23.85;45.10;100803.64;106420;1271;24223;-78
2022/06/12 08:34:39;;;;;;;4.30;1.70;;;;;;;24.04;44.82;100798.93;106476;1271;24393;-77
2022/06/12 08:37:12;;;;;;;3.80;2.10;;;;;;;24.17;44.58;100797.65;106490;1271;25480;-76
2022/06/12 08:39:39;;;;;;;3.20;2.00;;;;;;;24.21;44.48;100800.34;107552;1271;22584;-76
2022/06/12 08:42:10;;;;;;;2.80;2.00;;;;;;;24.25;44.66;100798.64;107767;1271;24995;-73
2022/06/12 08:45:10;;;;;;;3.90;1.80;;;;;;;24.31;44.25;100796.11;107490;1271;22540;-77
2022/06/12 08:47:58;;;;;;;2.50;1.80;;;;;;;24.25;44.02;100799.70;107351;1271;25300;-72
2022/06/12 08:50:45;;;;;;;2.80;1.90;;;;;;;24.22;44.39;100793.79;106506;1271;22552;-79
2022/06/12 08:53:25;;;;;;;4.40;2.10;;;;;;;24.18;44.56;100792.19;106406;1270;22528;-80
2022/06/12 08:56:02;;;;;;;3.30;1.80;;;;;;;24.25;44.31;100787.48;106920;1271;22556;-78
2022/06/12 08:58:32;;;;;;;3.70;2.10;;;;;;;24.35;43.56;100782.23;108610;1271;25299;-76
2022/06/12 09:01:01;;;;;;;4.90;2.00;;;;;;;24.48;43.07;100787.70;108686;1270;22956;-76
2022/06/12 09:03:32;;;;;;;4.30;1.80;;;;;;;24.54;42.82;100789.33;108271;1270;22542;-74
2022/06/12 09:06:09;;;;;;;3.00;1.90;;;;;;;24.53;42.42;100784.52;107741;1270;26489;-75
2022/06/12 09:08:43;;;;;;;3.70;2.40;;;;;;;24.56;42.64;100785.98;107087;1270;23117;-77
2022/06/12 09:11:31;;;;;;;3.20;2.40;;;;;;;24.57;42.81;100784.10;107921;1270;22550;-77
2022/06/12 09:14:31;;;;;;;3.40;2.20;;;;;;;24.53;42.72;100785.08;106879;1273;22836;-78
2022/06/12 09:17:22;;;;;;;6.40;2.10;;;;;;;24.51;43.31;100784.46;106072;1270;25247;-75
2022/06/12 09:20:06;;;;;;;2.40;2.20;;;;;;;24.56;43.21;100774.10;106307;1274;24263;-76
2022/06/12 09:23:03;;;;;;;2.80;1.90;;;;;;;24.60;43.21;100776.54;106657;1274;22587;-89
2022/06/12 09:26:00;;;;;;;3.70;2.20;;;;;;;24.70;43.23;100777.73;105968;1274;22764;-82
2022/06/12 09:28:39;;;;;;;3.60;2.30;;;;;;;24.65;43.56;100773.18;106078;1274;24286;-80
2022/06/12 09:31:32;;;;;;;2.80;2.10;;;;;;;24.75;43.56;100772.05;106201;1274;22619;-81
2022/06/12 09:34:30;;;;;;;3.90;2.70;;;;;;;24.82;43.88;100774.82;105955;1274;25475;-82
2022/06/12 09:40:31;;;;;;;3.30;2.00;;;;;;;24.70;44.26;100769.24;106384;1270;25886;-80
2022/06/12 09:43:18;;;;;;;2.80;2.50;;;;;;;24.76;44.66;100768.36;106196;1270;24346;-81
2022/06/12 09:46:29;;;;;;;6.30;2.70;;;;;;;25.00;44.40;100761.27;106350;1270;24261;-80
2022/06/12 09:49:02;;;;;;;6.40;2.70;;;;;;;25.23;44.41;100758.41;106096;1273;26686;-81
2022/06/12 09:51:55;;;;;;;3.10;2.60;;;;;;;25.47;44.24;100754.45;106109;1270;23915;-81
2022/06/12 09:54:31;;;;;;;4.10;3.40;;;;;;;25.75;44.75;100748.30;106096;1272;22558;-80
2022/06/12 09:57:40;;;;;;;3.50;2.70;;;;;;;25.91;44.28;100745.08;106063;1271;24212;-78
2022/06/12 10:00:17;;;;;;;5.40;3.20;;;;;;;26.27;45.02;100748.09;106111;1270;25249;-82
2022/06/12 10:03:16;;;;;;;6.60;3.40;;;;;;;26.63;45.29;100750.48;106216;1272;22548;-80
2022/06/12 10:05:56;;;;;;;3.20;3.00;;;;;;;26.76;45.00;100750.95;106182;1270;22713;-81
2022/06/12 10:08:34;;;;;;;3.80;3.30;;;;;;;26.90;44.49;100745.30;106198;1271;22524;-78
2022/06/12 10:11:10;;;;;;;5.10;3.30;;;;;;;26.82;43.88;100748.21;106176;1272;22800;-81
2022/06/12 10:13:53;;;;;;;6.40;3.50;;;;;;;26.67;43.86;100748.89;106366;1270;25377;-81
2022/06/12 10:16:26;;;;;;;9.20;5.30;;;;;;;26.56;44.03;100748.96;106215;1270;22548;-82
2022/06/12 10:19:23;;;;;;;6.70;3.80;;;;;;;26.47;44.03;100751.55;106112;1270;22551;-79
2022/06/12 10:21:55;;;;;;;4.30;3.50;;;;;;;26.32;44.03;100752.39;106463;1270;23098;-81
2022/06/12 10:24:22;;;;;;;7.20;3.60;;;;;;;26.17;44.11;100748.58;106200;1270;23997;-81
2022/06/12 10:26:57;;;;;;;6.00;3.70;;;;;;;26.04;44.44;100751.27;106328;1270;24353;-80
2022/06/12 10:29:26;;;;;;;5.00;3.50;;;;;;;26.02;44.65;100750.13;106342;1273;24240;-79
2022/06/12 10:32:01;;;;;;;3.40;3.10;;;;;;;26.01;44.35;100745.55;106377;1270;24225;-78
2022/06/12 10:34:31;;;;;;;7.70;3.60;;;;;;;25.94;43.98;100742.70;106095;1270;24262;-83
2022/06/12 10:37:17;;;;;;;3.30;3.00;;;;;;;25.93;43.72;100741.02;106306;1270;22550;-78
2022/06/12 10:39:45;;;;;;;9.30;3.00;;;;;;;25.79;43.82;100738.13;106431;1270;22636;-82
2022/06/12 10:42:52;;;;;;;5.20;3.20;;;;;;;25.69;44.00;100742.59;106216;1274;24198;-81
2022/06/12 10:45:24;;;;;;;6.40;3.80;;;;;;;25.53;44.72;100739.16;106058;1270;22554;-81
2022/06/12 10:48:00;;;;;;;5.10;3.60;;;;;;;25.53;45.27;100735.15;106352;1270;22587;-79
2022/06/12 10:50:34;;;;;;;7.60;3.80;;;;;;;25.50;45.62;100732.50;106263;1270;22645;-81
2022/06/12 10:53:15;;;;;;;7.40;3.70;;;;;;;25.35;45.96;100730.41;106330;1270;23953;-80
2022/06/12 10:56:08;;;;;;;7.70;3.60;;;;;;;25.16;46.42;100729.30;106276;1270;25340;-80
2022/06/12 10:59:00;;;;;;;4.10;3.70;;;;;;;25.04;47.05;100724.46;106241;1270;25322;-82
2022/06/12 11:01:36;;;;;;;3.90;3.50;;;;;;;25.00;47.53;100724.58;106326;1270;24474;-77
2022/06/12 11:04:38;;;;;;;6.00;4.30;;;;;;;25.03;47.37;100721.70;106394;1270;22596;-77
2022/06/12 11:07:16;;;;;;;7.50;4.10;;;;;;;24.99;47.55;100721.40;106382;1271;22706;-78
2022/06/12 11:09:56;;;;;;;4.30;3.70;;;;;;;25.06;48.04;100720.04;106422;1271;25252;-84
2022/06/12 11:12:34;;;;;;;4.80;3.90;;;;;;;25.12;47.66;100717.45;106431;1271;22534;-81
2022/06/12 11:15:36;;;;;;;5.60;3.90;;;;;;;25.28;47.84;100714.43;106183;1271;22564;-80
2022/06/12 11:18:14;;;;;;;3.90;3.40;;;;;;;25.76;47.47;100705.48;105800;1277;24370;-81
2022/06/12 11:20:59;;;;;;;4.00;3.20;;;;;;;26.09;45.88;100705.11;106076;1271;22756;-81
2022/06/12 11:23:35;;;;;;;5.10;2.80;;;;;;;26.32;45.04;100697.52;106365;1271;22681;-83
2022/06/12 11:26:39;;;;;;;5.70;2.80;;;;;;;26.71;44.21;100696.41;106204;1271;24335;-83
2022/06/12 11:29:31;;;;;;;3.40;2.50;;;;;;;26.87;44.16;100697.25;106142;1271;22552;-81
2022/06/12 11:32:07;;;;;;;3.00;2.70;;;;;;;26.87;43.53;100698.67;106334;1271;22864;-81
2022/06/12 11:34:50;;;;;;;3.00;2.70;;;;;;;26.95;43.17;100700.66;106358;1271;25416;-80
2022/06/12 11:37:32;;;;;;;3.10;2.80;;;;;;;27.17;42.92;100701.05;106173;1271;25304;-82
2022/06/12 11:40:32;;;;;;;4.70;2.90;;;;;;;27.19;42.64;100698.58;106198;1271;22538;-81
2022/06/12 11:43:12;;;;;;;3.60;2.60;;;;;;;27.37;42.52;100693.08;106189;1270;24801;-79
2022/06/12 11:46:04;;;;;;;3.80;3.10;;;;;;;27.58;41.73;100688.39;106273;1271;22526;-79
2022/06/12 11:49:07;;;;;;;5.40;3.10;;;;;;;27.88;42.11;100685.27;106147;1271;22864;-79
2022/06/12 11:51:45;;;;;;;7.10;3.00;;;;;;;28.31;41.90;100678.45;106082;1271;24292;-78
2022/06/12 11:54:28;;;;;;;4.10;2.80;;;;;;;28.62;41.47;100668.76;106254;1271;22529;-80
2022/06/12 11:57:10;;;;;;;3.10;2.40;;;;;;;28.98;40.59;100669.35;106263;1271;22563;-77
2022/06/12 12:00:01;;;;;;;5.50;2.30;;;;;;;29.22;39.37;100666.61;106164;1271;22685;-80
2022/06/12 12:03:05;;;;;;;4.30;2.10;;;;;;;29.47;38.69;100666.04;106226;1270;22634;-81
2022/06/12 12:05:45;;;;;;;3.80;2.40;;;;;;;29.65;37.93;100658.17;106120;1273;23930;-83
2022/06/12 12:08:27;;;;;;;5.10;2.50;;;;;;;29.75;37.11;100657.33;106259;1270;22619;-80
2022/06/12 12:11:06;;;;;;;3.50;2.30;;;;;;;29.56;37.05;100652.33;106210;1270;22607;-79
2022/06/12 12:13:43;;;;;;;4.00;2.40;;;;;;;29.68;37.14;100650.14;106145;1271;22615;-81
2022/06/12 12:16:17;;;;;;;7.00;3.00;;;;;;;29.89;37.31;100646.52;106243;1270;22724;-80
2022/06/12 12:18:54;;;;;;;3.40;2.40;;;;;;;30.10;37.36;100642.48;106280;1271;25339;-80
2022/06/12 12:21:48;;;;;;;3.00;2.40;;;;;;;30.38;37.17;100642.30;106056;1272;24282;-81